Time;durP1;ratioP1;P1;durP2;ratioP2;P2;SDS_P1;SDS_P2;PMS_P1;PMS_P2;Temp;Humidity;BMP_temperature;BMP_pressure;BME280_temperature;BME280_humidity;BME280_pressure;Samples;Min_cycle;Max_cycle;Signal;HPM_P1;HPM_P2
2022/12/24 00:01:13;;;;;;;8.15;3.13;;;11.90;85.50;;;;;;5039246;28;20147;-58
2022/12/24 00:03:38;;;;;;;11.68;3.38;;;11.80;85.30;;;;;;5043577;28;20025;-62
2022/12/24 00:06:14;;;;;;;5.20;2.95;;;11.80;85.50;;;;;;5044705;28;20021;-62
2022/12/24 00:08:40;;;;;;;13.32;2.65;;;11.80;85.20;;;;;;5044420;28;20207;-62
2022/12/24 00:11:06;;;;;;;10.55;2.42;;;11.80;85.20;;;;;;5044393;28;20116;-62
2022/12/24 00:13:32;;;;;;;9.85;2.55;;;11.80;85.30;;;;;;5046770;28;20029;-62
2022/12/24 00:15:57;;;;;;;13.25;2.42;;;11.80;85.20;;;;;;5044909;28;20062;-58
2022/12/24 00:18:23;;;;;;;9.70;3.00;;;11.80;85.20;;;;;;5048354;28;20028;-59
2022/12/24 00:20:50;;;;;;;14.82;2.53;;;11.80;85.10;;;;;;5048210;28;20029;-63
2022/12/24 00:23:17;;;;;;;8.85;2.38;;;11.80;85.30;;;;;;5043829;28;20074;-62
2022/12/24 00:25:43;;;;;;;9.43;3.40;;;11.80;85.30;;;;;;5038897;28;20021;-59
2022/12/24 00:28:09;;;;;;;8.30;2.35;;;11.80;85.20;;;;;;5034229;28;20029;-58
2022/12/24 00:30:37;;;;;;;12.77;2.40;;;11.80;85.20;;;;;;5052968;28;20026;-58
2022/12/24 00:33:03;;;;;;;10.60;3.25;;;11.80;85.10;;;;;;5035960;28;20051;-58
2022/12/24 00:35:29;;;;;;;19.67;4.03;;;11.80;84.80;;;;;;5052862;28;20026;-58
2022/12/24 00:37:55;;;;;;;11.02;3.40;;;11.70;84.70;;;;;;5048992;28;20032;-59
2022/12/24 00:40:20;;;;;;;9.95;2.83;;;11.70;84.90;;;;;;5049425;28;20052;-59
2022/12/24 00:42:46;;;;;;;12.02;3.33;;;11.70;84.60;;;;;;5046152;28;20025;-58
2022/12/24 00:45:12;;;;;;;19.73;2.58;;;11.70;84.50;;;;;;5051674;28;20036;-59
2022/12/24 00:47:38;;;;;;;13.48;2.58;;;11.70;84.50;;;;;;5059304;28;20139;-58
2022/12/24 00:50:04;;;;;;;12.95;4.13;;;11.70;84.40;;;;;;5051515;28;20059;-57
2022/12/24 00:52:30;;;;;;;11.07;2.67;;;11.70;84.50;;;;;;5055927;28;20028;-62
2022/12/24 00:54:56;;;;;;;8.10;3.17;;;11.70;84.60;;;;;;5047902;28;20041;-61
2022/12/24 00:57:21;;;;;;;8.20;2.33;;;11.70;84.60;;;;;;5042910;28;20041;-58
2022/12/24 00:59:47;;;;;;;13.48;3.80;;;11.80;84.50;;;;;;5051709;28;20476;-58
2022/12/24 01:02:13;;;;;;;12.90;3.15;;;11.70;84.30;;;;;;5050364;28;20017;-59
2022/12/24 01:07:22;;;;;;;11.77;2.92;;;11.70;84.50;;;;;;5051547;28;20051;-59
2022/12/24 01:09:48;;;;;;;16.23;4.05;;;11.70;85.30;;;;;;5051129;28;20025;-62
2022/12/24 01:12:14;;;;;;;6.97;2.60;;;11.70;84.40;;;;;;5051803;28;20033;-62
2022/12/24 01:14:39;;;;;;;19.77;4.13;;;11.70;84.40;;;;;;5050571;28;20111;-62
2022/12/24 01:17:05;;;;;;;12.57;3.53;;;11.70;84.70;;;;;;5052978;28;20052;-62
2022/12/24 01:19:31;;;;;;;12.40;3.25;;;11.60;84.50;;;;;;5050923;28;20307;-62
2022/12/24 01:21:57;;;;;;;12.85;4.15;;;11.70;84.70;;;;;;5057616;28;20036;-62
2022/12/24 01:24:23;;;;;;;7.47;2.35;;;11.70;84.70;;;;;;5057248;28;20025;-58
2022/12/24 01:26:48;;;;;;;9.32;2.33;;;11.70;84.70;;;;;;5044048;28;20443;-58
2022/12/24 01:29:14;;;;;;;14.02;2.47;;;11.60;84.70;;;;;;5043798;28;20326;-57
2022/12/24 01:31:40;;;;;;;12.35;2.92;;;11.70;84.90;;;;;;5039543;28;20096;-59
2022/12/24 01:34:06;;;;;;;13.48;3.85;;;11.60;84.90;;;;;;5058022;28;20112;-59
2022/12/24 01:36:32;;;;;;;5.32;2.22;;;11.70;84.70;;;;;;5052375;28;20421;-58
2022/12/24 01:38:58;;;;;;;8.30;2.28;;;11.60;84.80;;;;;;5041460;28;20507;-58
2022/12/24 01:44:32;;;;;;;12.40;2.47;;;11.60;84.60;;;;;;5047063;28;20433;-58
2022/12/24 01:47:27;;;;;;;17.50;4.25;;;11.60;84.60;;;;;;5051959;28;20036;-59
2022/12/24 01:50:14;;;;;;;15.13;3.65;;;11.60;84.80;;;;;;5041594;28;20044;-62
2022/12/24 01:52:40;;;;;;;8.73;2.72;;;11.60;84.70;;;;;;5043250;28;20028;-62
2022/12/24 01:55:09;;;;;;;16.48;3.88;;;11.50;84.80;;;;;;5045036;28;20110;-63
2022/12/24 01:57:50;;;;;;;9.40;3.25;;;11.50;84.80;;;;;;5046889;28;20084;-58
2022/12/24 02:00:16;;;;;;;10.68;4.63;;;11.50;84.80;;;;;;5040490;28;20017;-58
2022/12/24 02:02:45;;;;;;;7.38;2.67;;;11.60;84.90;;;;;;5050199;28;20036;-58
2022/12/24 02:05:20;;;;;;;10.48;4.20;;;11.50;84.90;;;;;;5051399;28;20056;-58
2022/12/24 02:07:46;;;;;;;13.02;2.88;;;11.50;85.00;;;;;;5036881;28;20028;-58
2022/12/24 02:10:13;;;;;;;6.60;3.00;;;11.50;84.90;;;;;;5044551;28;20128;-59
2022/12/24 02:12:40;;;;;;;10.45;3.08;;;11.40;85.00;;;;;;5060978;28;20395;-62
2022/12/24 02:15:09;;;;;;;8.98;3.33;;;11.40;85.00;;;;;;5046940;28;20529;-58
2022/12/24 02:17:46;;;;;;;22.55;3.67;;;11.40;85.00;;;;;;5055675;28;20034;-59
2022/12/24 02:20:49;;;;;;;6.25;1.65;;;11.40;85.10;;;;;;5049363;28;20029;-58
2022/12/24 02:23:33;;;;;;;18.80;3.08;;;11.40;85.00;;;;;;5049107;28;20032;-58
2022/12/24 02:26:36;;;;;;;13.23;3.65;;;11.30;85.20;;;;;;5042542;28;20640;-63
2022/12/24 02:29:41;;;;;;;10.68;3.15;;;11.30;85.30;;;;;;5047938;28;20041;-62
2022/12/24 02:32:30;;;;;;;5.28;2.25;;;11.30;85.40;;;;;;5046672;28;20116;-62
2022/12/24 02:35:04;;;;;;;7.45;2.67;;;11.20;85.50;;;;;;5050045;28;20059;-58
2022/12/24 02:37:42;;;;;;;14.57;2.75;;;11.20;85.60;;;;;;5045838;28;20033;-58
2022/12/24 02:40:13;;;;;;;10.02;3.22;;;11.10;85.60;;;;;;5049694;28;20036;-62
2022/12/24 02:42:49;;;;;;;13.00;3.10;;;11.10;85.80;;;;;;5042637;28;20028;-62
2022/12/24 02:45:21;;;;;;;12.35;2.90;;;11.00;85.80;;;;;;5044334;28;20462;-58
2022/12/24 02:47:48;;;;;;;9.35;2.63;;;11.00;85.90;;;;;;5035489;28;20485;-58
2022/12/24 02:50:15;;;;;;;6.35;2.30;;;10.90;86.00;;;;;;5048655;28;20443;-58
2022/12/24 02:52:46;;;;;;;5.18;1.98;;;10.90;86.00;;;;;;5050137;28;20029;-58
2022/12/24 02:55:35;;;;;;;12.88;3.55;;;10.90;86.00;;;;;;5049775;28;20036;-58
2022/12/24 02:58:01;;;;;;;9.30;2.55;;;10.90;85.90;;;;;;5046762;28;20157;-58
2022/12/24 03:00:44;;;;;;;6.25;1.88;;;10.80;86.10;;;;;;5038474;28;20393;-62
2022/12/24 03:03:28;;;;;;;7.88;2.03;;;10.80;86.00;;;;;;5051871;28;20714;-59
2022/12/24 03:06:22;;;;;;;11.15;1.77;;;10.80;86.10;;;;;;5031660;28;20115;-58
2022/12/24 03:09:12;;;;;;;13.48;2.83;;;10.80;86.10;;;;;;5047416;28;20036;-58
2022/12/24 03:11:43;;;;;;;15.82;2.78;;;10.80;86.20;;;;;;5046197;28;20384;-59
2022/12/24 03:14:09;;;;;;;12.23;2.03;;;10.80;86.20;;;;;;5044174;28;20083;-59
2022/12/24 03:16:35;;;;;;;4.45;2.00;;;10.70;86.10;;;;;;5041825;28;20025;-59
2022/12/24 03:19:02;;;;;;;8.65;1.95;;;10.80;86.10;;;;;;5060065;28;20518;-63
2022/12/24 03:21:32;;;;;;;5.07;1.75;;;10.80;86.00;;;;;;5045596;28;20017;-63
2022/12/24 03:23:58;;;;;;;8.50;2.25;;;10.90;86.00;;;;;;5052040;28;20098;-63
2022/12/24 03:26:25;;;;;;;9.82;2.78;;;10.90;85.80;;;;;;5044480;28;20553;-63
2022/12/24 03:28:51;;;;;;;18.05;2.05;;;10.80;85.80;;;;;;5041224;28;20030;-58
2022/12/24 03:31:17;;;;;;;10.18;2.78;;;10.80;85.80;;;;;;5031798;28;20146;-59
2022/12/24 03:33:44;;;;;;;6.15;2.40;;;10.80;85.90;;;;;;5042945;28;20028;-58
2022/12/24 03:36:10;;;;;;;7.28;2.38;;;10.80;85.90;;;;;;5044150;28;20029;-59
2022/12/24 03:38:36;;;;;;;19.15;2.63;;;10.80;85.90;;;;;;5049106;28;20025;-59
2022/12/24 03:41:02;;;;;;;5.88;2.55;;;10.80;86.00;;;;;;5038062;28;20036;-63
2022/12/24 03:43:28;;;;;;;9.32;2.67;;;10.80;86.10;;;;;;5055985;28;20104;-58
2022/12/24 03:45:54;;;;;;;6.75;2.55;;;10.80;86.10;;;;;;5050305;28;20448;-59
2022/12/24 03:48:19;;;;;;;8.63;2.25;;;10.80;86.10;;;;;;5045441;28;20135;-63
2022/12/24 03:50:45;;;;;;;5.93;2.13;;;10.80;86.20;;;;;;5037364;28;20035;-59
2022/12/24 03:53:11;;;;;;;10.18;2.92;;;10.90;86.30;;;;;;5051579;28;20025;-59
2022/12/24 03:55:38;;;;;;;5.47;2.00;;;10.90;86.20;;;;;;5047291;28;20116;-62
2022/12/24 03:58:03;;;;;;;8.52;2.80;;;10.90;86.20;;;;;;5049992;28;20060;-58
2022/12/24 04:00:29;;;;;;;3.60;1.98;;;10.90;86.20;;;;;;5048731;28;20013;-59
2022/12/24 04:02:55;;;;;;;7.38;2.20;;;10.90;86.20;;;;;;5042441;28;20025;-63
2022/12/24 04:05:21;;;;;;;5.13;2.35;;;10.90;86.40;;;;;;5043962;28;20112;-59
2022/12/24 04:07:47;;;;;;;3.50;2.10;;;11.00;87.00;;;;;;5036873;28;20312;-63
2022/12/24 04:10:14;;;;;;;7.35;2.35;;;11.00;86.30;;;;;;5041708;28;20017;-59
2022/12/24 04:12:40;;;;;;;6.53;2.08;;;11.00;86.30;;;;;;5054913;28;20053;-63
2022/12/24 04:15:06;;;;;;;7.68;3.00;;;11.00;86.30;;;;;;5048965;28;20056;-58
2022/12/24 04:17:32;;;;;;;9.02;3.05;;;11.10;86.40;;;;;;5048627;28;20031;-59
2022/12/24 04:19:58;;;;;;;6.10;2.80;;;11.10;86.40;;;;;;5047934;28;20021;-59
2022/12/24 04:22:23;;;;;;;8.45;3.65;;;11.10;86.40;;;;;;5044768;28;20065;-62
2022/12/24 04:24:49;;;;;;;10.73;3.55;;;11.10;86.40;;;;;;5048107;28;20040;-62
2022/12/24 04:27:15;;;;;;;8.82;2.90;;;11.10;86.50;;;;;;5042635;28;20034;-63
2022/12/24 04:29:41;;;;;;;6.07;2.30;;;11.10;86.60;;;;;;5051495;28;20037;-58
2022/12/24 04:32:07;;;;;;;5.68;2.22;;;11.10;86.80;;;;;;5058487;28;20037;-63
2022/12/24 04:34:32;;;;;;;8.55;2.97;;;11.10;86.90;;;;;;5046259;28;20033;-63
2022/12/24 04:36:58;;;;;;;6.68;2.80;;;11.20;87.10;;;;;;5052398;28;20158;-59
2022/12/24 04:39:24;;;;;;;14.18;2.95;;;11.20;87.20;;;;;;5049198;28;20096;-59
2022/12/24 04:41:49;;;;;;;5.72;2.22;;;11.20;87.20;;;;;;5036085;28;20030;-59
2022/12/24 04:44:15;;;;;;;8.82;3.08;;;11.20;87.30;;;;;;5040073;28;20022;-63
2022/12/24 04:46:41;;;;;;;12.18;4.32;;;11.30;87.40;;;;;;5057666;28;20043;-63
2022/12/24 04:49:06;;;;;;;7.60;3.60;;;11.30;87.40;;;;;;5049353;28;20070;-63
2022/12/24 04:51:32;;;;;;;8.95;2.70;;;11.30;87.50;;;;;;5048063;28;20038;-60
2022/12/24 04:53:58;;;;;;;4.63;2.47;;;11.30;87.40;;;;;;5040785;28;20032;-60
2022/12/24 04:56:27;;;;;;;8.95;3.40;;;11.40;87.50;;;;;;5057339;28;20082;-59
2022/12/24 04:58:54;;;;;;;5.45;2.05;;;11.40;87.40;;;;;;5046536;28;20048;-58
2022/12/24 05:01:23;;;;;;;14.68;3.28;;;11.40;87.90;;;;;;5046214;28;20858;-63
2022/12/24 05:03:49;;;;;;;13.00;3.38;;;11.50;87.40;;;;;;5038604;28;20020;-63
2022/12/24 05:06:17;;;;;;;9.30;3.40;;;11.50;87.50;;;;;;5051981;28;20033;-63
2022/12/24 05:08:43;;;;;;;16.17;3.30;;;11.50;87.70;;;;;;5050708;28;20033;-59
2022/12/24 05:11:13;;;;;;;6.63;3.35;;;11.50;87.70;;;;;;5047526;28;20047;-58
2022/12/24 05:13:38;;;;;;;7.18;3.05;;;11.50;87.70;;;;;;5046313;28;20098;-63
2022/12/24 05:16:04;;;;;;;8.65;3.22;;;11.60;87.80;;;;;;5056563;28;20037;-63
2022/12/24 05:18:30;;;;;;;23.05;3.63;;;11.60;87.80;;;;;;5051219;28;20021;-63
2022/12/24 05:20:55;;;;;;;29.70;3.83;;;11.60;87.80;;;;;;5046154;28;20183;-63
2022/12/24 05:26:23;;;;;;;7.78;3.03;;;11.60;87.80;;;;;;5044538;28;20391;-63
2022/12/24 05:28:50;;;;;;;9.35;3.03;;;11.70;87.80;;;;;;5055782;28;20396;-63
2022/12/24 05:31:17;;;;;;;25.52;3.15;;;11.70;87.70;;;;;;5055860;28;20116;-63
2022/12/24 05:33:43;;;;;;;8.07;2.65;;;11.70;87.70;;;;;;5049188;28;20534;-58
2022/12/24 05:36:09;;;;;;;9.88;3.17;;;11.70;87.70;;;;;;5043568;28;20024;-59
2022/12/24 05:38:35;;;;;;;8.27;3.28;;;11.70;87.70;;;;;;5051212;28;20360;-63
2022/12/24 05:41:00;;;;;;;9.05;2.42;;;11.70;87.70;;;;;;5054796;28;20038;-63
2022/12/24 05:43:26;;;;;;;13.50;3.75;;;11.70;87.80;;;;;;5048417;28;20426;-62
2022/12/24 05:45:58;;;;;;;20.27;3.70;;;11.70;88.00;;;;;;5055757;28;20029;-65
2022/12/24 05:48:23;;;;;;;9.82;2.22;;;11.70;88.10;;;;;;5051030;28;20025;-59
2022/12/24 05:50:49;;;;;;;14.65;3.47;;;11.60;88.20;;;;;;5057659;28;20029;-59
2022/12/24 05:53:15;;;;;;;7.80;3.08;;;11.60;88.30;;;;;;5041262;28;20033;-63
2022/12/24 05:55:40;;;;;;;9.35;2.97;;;11.70;88.30;;;;;;5056046;28;20123;-58
2022/12/24 05:58:06;;;;;;;8.15;2.13;;;11.70;88.20;;;;;;5050098;28;20484;-58
2022/12/24 06:00:31;;;;;;;8.70;2.85;;;11.70;88.10;;;;;;5053387;28;20062;-62
2022/12/24 06:02:57;;;;;;;6.53;2.97;;;11.80;88.10;;;;;;5043800;28;20203;-59
2022/12/24 06:05:23;;;;;;;7.45;2.42;;;11.80;88.10;;;;;;5051277;28;20136;-63
2022/12/24 06:07:48;;;;;;;11.52;3.38;;;11.80;88.10;;;;;;5040534;28;20476;-59
2022/12/24 06:10:14;;;;;;;12.00;3.78;;;11.80;88.00;;;;;;5043538;28;20029;-63
2022/12/24 06:12:40;;;;;;;13.82;4.22;;;11.80;88.10;;;;;;5052359;28;20035;-58
2022/12/24 06:15:06;;;;;;;7.40;3.03;;;11.80;88.10;;;;;;5048019;28;20021;-58
2022/12/24 06:17:32;;;;;;;6.80;2.60;;;11.80;88.10;;;;;;5044168;28;20040;-63
2022/12/24 06:19:58;;;;;;;17.15;4.07;;;11.80;88.10;;;;;;5045533;28;20029;-62
2022/12/24 06:22:24;;;;;;;8.15;3.17;;;11.80;88.00;;;;;;5049398;28;20025;-63
2022/12/24 06:24:49;;;;;;;16.58;3.83;;;11.80;87.90;;;;;;5047873;28;20025;-63
2022/12/24 06:27:15;;;;;;;9.63;3.28;;;11.90;88.00;;;;;;5049067;28;20033;-59
2022/12/24 06:29:40;;;;;;;18.65;3.85;;;11.80;87.90;;;;;;5046776;28;20029;-59
2022/12/24 06:32:06;;;;;;;6.15;2.65;;;11.80;87.90;;;;;;5056438;28;20037;-59
2022/12/24 06:34:32;;;;;;;17.77;3.75;;;11.80;88.00;;;;;;5047479;28;20065;-63
2022/12/24 06:36:57;;;;;;;12.45;3.55;;;11.80;87.90;;;;;;5041361;28;20037;-63
2022/12/24 06:39:24;;;;;;;17.65;3.97;;;11.80;87.90;;;;;;5046268;28;20056;-63
2022/12/24 06:41:50;;;;;;;17.50;3.13;;;11.90;87.90;;;;;;5036196;28;20435;-58
2022/12/24 06:44:16;;;;;;;7.13;2.30;;;11.80;87.90;;;;;;5037040;28;20115;-59
2022/12/24 06:46:41;;;;;;;11.15;3.80;;;11.90;87.80;;;;;;5051153;28;20118;-58
2022/12/24 06:49:07;;;;;;;10.43;3.22;;;11.90;87.70;;;;;;5045053;28;20403;-58
2022/12/24 06:51:33;;;;;;;11.30;3.13;;;11.90;87.70;;;;;;5047199;28;20277;-63
2022/12/24 06:53:58;;;;;;;9.95;3.22;;;11.90;87.70;;;;;;5046979;28;20037;-63
2022/12/24 06:56:24;;;;;;;11.43;3.63;;;11.90;87.70;;;;;;5044280;28;20029;-62
2022/12/24 06:58:50;;;;;;;6.03;2.90;;;11.90;87.70;;;;;;5041672;28;20075;-58
2022/12/24 07:01:18;;;;;;;11.55;3.28;;;11.90;87.70;;;;;;5045019;28;20020;-63
2022/12/24 07:03:43;;;;;;;7.28;2.53;;;11.90;87.70;;;;;;5048015;28;20020;-59
2022/12/24 07:06:23;;;;;;;6.10;2.63;;;11.90;87.70;;;;;;5042061;28;20030;-59
2022/12/24 07:08:49;;;;;;;10.07;3.22;;;11.90;87.60;;;;;;5048727;28;20063;-62
2022/12/24 07:11:15;;;;;;;12.02;3.17;;;11.90;87.60;;;;;;5046572;28;20062;-58
2022/12/24 07:13:41;;;;;;;6.25;2.95;;;11.90;87.60;;;;;;5047558;28;20043;-58
2022/12/24 07:16:07;;;;;;;10.65;2.85;;;11.90;87.70;;;;;;5050979;28;20029;-59
2022/12/24 07:18:33;;;;;;;8.38;3.22;;;11.90;87.70;;;;;;5040614;28;20164;-59
2022/12/24 07:21:00;;;;;;;12.48;3.90;;;11.90;87.60;;;;;;5046697;28;20127;-59
2022/12/24 07:23:26;;;;;;;12.68;3.67;;;11.90;87.60;;;;;;5043353;28;20106;-58
2022/12/24 07:25:51;;;;;;;8.63;3.40;;;11.90;87.60;;;;;;5038893;28;20021;-58
2022/12/24 07:28:17;;;;;;;9.10;2.90;;;11.90;87.70;;;;;;5047988;28;20037;-62
2022/12/24 07:30:43;;;;;;;23.10;4.72;;;11.90;87.70;;;;;;5044212;28;20114;-62
2022/12/24 07:33:08;;;;;;;9.43;2.72;;;11.90;88.30;;;;;;5045989;28;20510;-62
2022/12/24 07:35:34;;;;;;;9.45;3.13;;;11.90;87.70;;;;;;5046718;28;20028;-59
2022/12/24 07:38:01;;;;;;;5.80;2.85;;;11.90;87.50;;;;;;5033918;28;20033;-62
2022/12/24 07:40:27;;;;;;;11.48;3.90;;;11.90;87.50;;;;;;5033230;28;20049;-64
2022/12/24 07:42:52;;;;;;;13.05;3.85;;;11.90;87.40;;;;;;5042114;28;20064;-64
2022/12/24 07:45:18;;;;;;;10.05;2.80;;;11.90;87.40;;;;;;5042491;28;20029;-59
2022/12/24 07:47:44;;;;;;;7.93;3.10;;;11.90;87.30;;;;;;5037196;28;20064;-59
2022/12/24 07:50:10;;;;;;;11.15;3.33;;;11.90;87.30;;;;;;5044485;28;20431;-64
2022/12/24 07:52:36;;;;;;;20.13;4.13;;;11.90;87.30;;;;;;5048395;28;20525;-65
2022/12/24 07:55:01;;;;;;;10.95;3.80;;;11.90;87.30;;;;;;5044164;28;20471;-59
2022/12/24 07:57:27;;;;;;;10.02;3.75;;;11.90;87.30;;;;;;5052139;28;20025;-66
2022/12/24 07:59:52;;;;;;;12.77;4.05;;;11.90;87.30;;;;;;5043568;28;20028;-60
2022/12/24 08:02:18;;;;;;;7.35;3.25;;;11.90;87.30;;;;;;5044181;28;20381;-60
2022/12/24 08:04:44;;;;;;;27.42;3.80;;;12.00;87.20;;;;;;5047509;28;20528;-66
2022/12/24 08:07:10;;;;;;;14.40;4.43;;;12.00;87.10;;;;;;5043604;28;20400;-59
2022/12/24 08:09:36;;;;;;;11.38;2.95;;;11.90;87.00;;;;;;5049680;28;20433;-61
2022/12/24 08:12:03;;;;;;;9.45;3.92;;;11.90;87.00;;;;;;5049202;28;20025;-65
2022/12/24 08:14:29;;;;;;;11.60;3.75;;;11.90;87.00;;;;;;5044580;28;20048;-65
2022/12/24 08:16:55;;;;;;;7.07;3.28;;;11.90;87.00;;;;;;5050491;28;20047;-65
2022/12/24 08:19:21;;;;;;;7.63;3.22;;;11.90;86.90;;;;;;5048977;28;20025;-65
2022/12/24 08:21:47;;;;;;;15.75;2.78;;;11.90;86.90;;;;;;5050592;28;20029;-60
2022/12/24 08:24:12;;;;;;;7.60;2.92;;;12.00;86.90;;;;;;5051694;28;20025;-60
2022/12/24 08:26:38;;;;;;;10.38;3.67;;;11.90;86.70;;;;;;5047069;28;20428;-59
2022/12/24 08:29:05;;;;;;;13.25;4.10;;;11.90;86.70;;;;;;5050917;28;20372;-68
2022/12/24 08:31:35;;;;;;;10.00;2.60;;;11.90;86.70;;;;;;5047410;28;20029;-68
2022/12/24 08:34:05;;;;;;;17.52;4.35;;;12.00;86.80;;;;;;5049798;28;20033;-59
2022/12/24 08:36:31;;;;;;;9.68;3.05;;;12.00;86.50;;;;;;5049221;28;20407;-69
2022/12/24 08:38:57;;;;;;;6.53;2.88;;;12.00;86.50;;;;;;5047232;28;20025;-70
2022/12/24 08:41:22;;;;;;;14.90;3.20;;;12.00;86.50;;;;;;5046050;28;20041;-68
2022/12/24 08:43:48;;;;;;;11.38;3.55;;;12.00;86.30;;;;;;5048862;28;20617;-69
2022/12/24 08:46:14;;;;;;;12.57;3.60;;;12.00;86.30;;;;;;5048678;28;20036;-68
2022/12/24 08:48:39;;;;;;;11.57;2.88;;;12.00;86.30;;;;;;5048189;28;20528;-68
2022/12/24 08:51:09;;;;;;;11.45;3.85;;;12.00;86.30;;;;;;5049463;28;20036;-70
2022/12/24 08:53:35;;;;;;;7.22;3.05;;;12.10;86.30;;;;;;5046366;28;20601;-70
2022/12/24 08:56:06;;;;;;;9.50;3.75;;;12.00;86.00;;;;;;5050782;28;20115;-69
2022/12/24 08:58:32;;;;;;;8.07;2.92;;;12.10;86.20;;;;;;5043982;28;20056;-69
2022/12/24 09:00:58;;;;;;;17.70;3.97;;;12.10;86.20;;;;;;5050129;28;20029;-60
2022/12/24 09:03:25;;;;;;;7.15;3.33;;;12.10;86.10;;;;;;5052306;28;20029;-59
2022/12/24 09:05:52;;;;;;;8.85;2.50;;;12.10;86.00;;;;;;5041681;28;20025;-59
2022/12/24 09:08:18;;;;;;;4.05;1.98;;;12.10;86.00;;;;;;5054082;28;20121;-60
2022/12/24 09:10:44;;;;;;;10.30;3.22;;;12.10;86.00;;;;;;5047879;28;20043;-59
2022/12/24 09:13:10;;;;;;;8.57;3.03;;;12.10;86.00;;;;;;5032583;28;20040;-59
2022/12/24 09:15:35;;;;;;;15.27;2.63;;;12.10;86.00;;;;;;5049867;28;20159;-69
2022/12/24 09:18:01;;;;;;;6.35;2.22;;;12.10;86.00;;;;;;5048697;28;20036;-69
2022/12/24 09:20:27;;;;;;;11.75;3.85;;;12.10;86.00;;;;;;5048531;28;20091;-64
2022/12/24 09:22:52;;;;;;;11.80;3.00;;;12.20;86.00;;;;;;5044751;28;20310;-60
2022/12/24 09:25:18;;;;;;;10.07;2.70;;;12.20;85.90;;;;;;5033682;28;20099;-59
2022/12/24 09:27:44;;;;;;;15.18;3.28;;;12.20;85.90;;;;;;5039393;28;20033;-60
2022/12/24 09:30:10;;;;;;;7.03;2.80;;;12.20;85.50;;;;;;5042003;28;20115;-60
2022/12/24 09:32:36;;;;;;;18.98;3.63;;;12.20;85.70;;;;;;5032484;28;20034;-60
2022/12/24 09:35:02;;;;;;;10.13;3.63;;;12.20;85.70;;;;;;5034296;28;20165;-64
2022/12/24 09:37:27;;;;;;;20.02;3.13;;;12.20;85.70;;;;;;5040821;28;20192;-64
2022/12/24 09:39:53;;;;;;;8.65;3.15;;;12.20;85.70;;;;;;5041421;28;20021;-60
2022/12/24 09:42:30;;;;;;;11.30;3.40;;;12.20;85.70;;;;;;5048626;28;20032;-59
2022/12/24 09:45:25;;;;;;;16.17;4.53;;;12.20;85.60;;;;;;5041589;28;20029;-60
2022/12/24 09:47:56;;;;;;;9.23;3.25;;;12.20;85.60;;;;;;5037891;28;20527;-60
2022/12/24 09:50:29;;;;;;;14.65;3.67;;;12.20;85.40;;;;;;5047349;28;20064;-60
2022/12/24 09:52:57;;;;;;;12.13;3.75;;;12.20;85.40;;;;;;5046502;28;20043;-60
2022/12/24 09:55:28;;;;;;;9.82;2.78;;;12.20;85.30;;;;;;5050783;28;20037;-64
2022/12/24 09:57:58;;;;;;;7.90;2.83;;;12.30;85.30;;;;;;5047976;28;20040;-60
2022/12/24 10:00:32;;;;;;;14.75;3.50;;;12.30;85.40;;;;;;5036926;28;20653;-64
2022/12/24 10:02:58;;;;;;;13.15;3.63;;;12.30;85.20;;;;;;5033758;28;20522;-60
2022/12/24 10:05:40;;;;;;;11.65;2.63;;;12.20;85.20;;;;;;5043327;28;20113;-60
2022/12/24 10:08:45;;;;;;;11.05;3.40;;;12.30;85.20;;;;;;5036979;28;20030;-64
2022/12/24 10:11:29;;;;;;;9.32;3.15;;;12.30;85.00;;;;;;5012000;28;20427;-60
2022/12/24 10:14:32;;;;;;;10.43;3.25;;;12.30;85.00;;;;;;5036472;28;20053;-64
2022/12/24 10:17:16;;;;;;;17.52;2.75;;;12.30;84.90;;;;;;5037829;28;20426;-63
2022/12/24 10:19:45;;;;;;;10.32;2.80;;;12.30;85.00;;;;;;5033008;28;20496;-64
2022/12/24 10:22:50;;;;;;;20.13;4.07;;;12.40;85.00;;;;;;5038364;28;20033;-60
2022/12/24 10:25:36;;;;;;;10.95;3.58;;;12.40;84.70;;;;;;5029340;28;20033;-64
2022/12/24 10:28:13;;;;;;;14.85;4.40;;;12.40;84.80;;;;;;5042711;28;20472;-60
2022/12/24 10:30:39;;;;;;;10.68;2.88;;;12.40;85.00;;;;;;5024975;28;20480;-59
2022/12/24 10:33:19;;;;;;;12.02;2.85;;;12.40;84.90;;;;;;5038525;28;20059;-59
2022/12/24 10:35:50;;;;;;;12.85;3.90;;;12.40;84.70;;;;;;5042847;28;20037;-59
2022/12/24 10:38:16;;;;;;;8.90;2.93;;;12.40;84.70;;;;;;5048063;28;20358;-63
2022/12/24 10:40:55;;;;;;;8.63;3.40;;;12.40;84.70;;;;;;5046567;28;20064;-60
2022/12/24 10:43:24;;;;;;;10.63;3.30;;;12.50;84.60;;;;;;5034391;28;20029;-60
2022/12/24 10:45:54;;;;;;;10.52;3.63;;;12.50;84.70;;;;;;5041537;28;20079;-60
2022/12/24 10:48:43;;;;;;;8.02;3.33;;;12.50;84.40;;;;;;5047911;28;20412;-59
2022/12/24 10:51:20;;;;;;;9.63;2.83;;;12.60;84.30;;;;;;5037832;28;20071;-60
2022/12/24 10:53:50;;;;;;;7.28;2.78;;;12.70;83.90;;;;;;5047950;28;20057;-59
2022/12/24 10:56:18;;;;;;;26.80;4.05;;;12.80;83.50;;;;;;5048483;28;20491;-64
2022/12/24 10:58:45;;;;;;;17.02;3.13;;;12.80;83.00;;;;;;5040805;28;20060;-65
2022/12/24 11:01:12;;;;;;;7.78;3.03;;;12.80;83.10;;;;;;5038227;28;20379;-59
2022/12/24 11:03:38;;;;;;;8.43;1.98;;;12.80;83.30;;;;;;5046965;28;20379;-60
2022/12/24 11:06:08;;;;;;;15.35;3.40;;;12.80;83.30;;;;;;5040570;28;20444;-59
2022/12/24 11:08:35;;;;;;;6.03;2.92;;;12.90;83.10;;;;;;5041517;28;20037;-60
2022/12/24 11:11:05;;;;;;;14.82;3.60;;;12.90;83.20;;;;;;5042956;28;20049;-59
2022/12/24 11:13:42;;;;;;;10.10;3.08;;;13.00;82.50;;;;;;5034389;28;20057;-63
2022/12/24 11:16:13;;;;;;;7.85;2.97;;;13.10;81.40;;;;;;5039712;28;20021;-62
2022/12/24 11:18:49;;;;;;;11.45;2.78;;;13.20;81.30;;;;;;5047549;28;20079;-63
2022/12/24 11:21:29;;;;;;;6.65;2.80;;;13.20;81.00;;;;;;5039720;28;20021;-59
2022/12/24 11:24:18;;;;;;;6.07;2.33;;;13.10;81.00;;;;;;5049293;28;20471;-60
2022/12/24 11:26:44;;;;;;;10.35;3.70;;;13.10;81.20;;;;;;5040755;28;20064;-59
2022/12/24 11:29:21;;;;;;;14.57;2.67;;;13.00;81.40;;;;;;5065210;28;20460;-60
2022/12/24 11:31:48;;;;;;;9.55;2.80;;;13.00;81.60;;;;;;5047850;28;20151;-63
2022/12/24 11:34:29;;;;;;;10.98;3.13;;;13.00;81.20;;;;;;5054996;28;20032;-63
2022/12/24 11:37:15;;;;;;;8.13;2.50;;;12.90;80.70;;;;;;5045032;28;20030;-60
2022/12/24 11:39:46;;;;;;;9.52;3.10;;;12.90;81.10;;;;;;5050953;28;20879;-60
2022/12/24 11:42:37;;;;;;;4.18;2.35;;;13.00;80.90;;;;;;5045337;28;20017;-59
2022/12/24 11:45:19;;;;;;;9.35;2.45;;;13.00;80.40;;;;;;5038735;28;20048;-58
2022/12/24 11:47:45;;;;;;;9.98;2.80;;;13.00;80.40;;;;;;5040236;28;20025;-63
2022/12/24 11:50:19;;;;;;;8.27;3.05;;;13.00;80.20;;;;;;5042413;28;20033;-63
2022/12/24 11:53:16;;;;;;;13.13;2.42;;;13.00;80.20;;;;;;5044155;28;20400;-63
2022/12/24 11:55:49;;;;;;;12.95;3.13;;;13.00;79.70;;;;;;5046449;28;20495;-63
2022/12/24 11:58:42;;;;;;;5.28;2.55;;;13.00;79.90;;;;;;5051464;28;20037;-60
2022/12/24 12:01:29;;;;;;;5.57;2.58;;;13.20;79.60;;;;;;5042645;28;20476;-60
2022/12/24 12:04:03;;;;;;;4.93;1.25;;;13.70;78.90;;;;;;5036751;28;20060;-60
2022/12/24 12:06:35;;;;;;;6.15;1.90;;;14.10;78.00;;;;;;5042810;28;20031;-64
2022/12/24 12:09:09;;;;;;;8.80;2.65;;;14.50;77.30;;;;;;5047987;28;20056;-64
2022/12/24 12:11:39;;;;;;;5.72;2.78;;;15.30;75.80;;;;;;5044794;28;20053;-62
2022/12/24 12:14:09;;;;;;;7.88;2.38;;;16.10;73.90;;;;;;5036382;28;20035;-63
2022/12/24 12:17:04;;;;;;;6.63;1.67;;;16.70;70.90;;;;;;5044837;28;20091;-60
2022/12/24 12:19:58;;;;;;;15.00;2.65;;;17.10;69.00;;;;;;5037011;28;20083;-60
2022/12/24 12:22:42;;;;;;;4.22;1.95;;;16.50;68.70;;;;;;5037928;28;20017;-63
2022/12/24 12:25:20;;;;;;;4.93;1.67;;;15.70;70.60;;;;;;5043898;28;20040;-62
2022/12/24 12:27:48;;;;;;;6.75;1.70;;;15.00;72.20;;;;;;5039637;28;20026;-60
2022/12/24 12:30:20;;;;;;;4.88;1.67;;;14.60;73.70;;;;;;5054098;28;20037;-60
2022/12/24 12:33:22;;;;;;;9.90;3.13;;;14.30;74.70;;;;;;5044020;28;20564;-60
2022/12/24 12:35:49;;;;;;;10.57;3.03;;;14.10;74.70;;;;;;5063099;28;20025;-64
2022/12/24 12:38:24;;;;;;;5.03;1.80;;;13.70;75.10;;;;;;5041947;28;20025;-60
2022/12/24 12:41:12;;;;;;;23.17;3.17;;;13.50;76.10;;;;;;5049338;28;20042;-63
2022/12/24 12:43:59;;;;;;;4.78;2.20;;;13.40;76.50;;;;;;5051915;28;20070;-63
2022/12/24 12:46:48;;;;;;;5.45;1.58;;;13.20;77.00;;;;;;5050389;28;20098;-60
2022/12/24 12:49:23;;;;;;;5.53;2.45;;;13.20;77.00;;;;;;5041044;28;20376;-63
2022/12/24 12:51:52;;;;;;;6.57;1.58;;;13.20;77.10;;;;;;5050730;28;20032;-63
2022/12/24 12:54:36;;;;;;;20.52;2.45;;;13.40;76.90;;;;;;5044390;28;20583;-63
2022/12/24 12:57:07;;;;;;;7.53;1.70;;;13.40;75.90;;;;;;5043118;28;20043;-63
2022/12/24 12:59:43;;;;;;;6.63;1.95;;;13.50;75.80;;;;;;5047467;28;20052;-65
2022/12/24 13:02:21;;;;;;;5.50;2.58;;;13.60;75.70;;;;;;5041725;28;20036;-64
2022/12/24 13:05:06;;;;;;;6.07;2.40;;;13.80;75.10;;;;;;5045889;28;20029;-60
2022/12/24 13:08:01;;;;;;;8.85;2.28;;;13.80;74.70;;;;;;5042324;28;20025;-60